METAR AND TAF INFORMATION
METAR FOR ENHD
ADDS - METARS form results

(1534 UTC 21 June 2021)
Data provider http://aviationweather.gov/metar/data/
 
METAR text: ENHD 211520Z 34017KT 9999 FEW017 14/09 Q1013
Conditions at: ENHD (HAUGESUND/KARMOY, NO) observed 1520 UTC 21 June 2021
Temperature: 14.0°C (57°F)
Dewpoint: 9.0°C (48°F) [RH = 72%]
Pressure (altimeter): 29.91 inches Hg (1013.0 mb)
Winds: from the NNW (340 degrees) at 20 MPH (17 knots; 8.7 m/s)
Visibility: 6 or more miles (10+ km)
Ceiling: at least 12,000 feet AGL
Clouds: few clouds at 1700 feet AGL
Weather: no significant weather observed at this time

METAR text: ENHD 211450Z 35017KT 9999 FEW039 13/09 Q1013
Conditions at: ENHD (HAUGESUND/KARMOY, NO) observed 1450 UTC 21 June 2021
Temperature: 13.0°C (55°F)
Dewpoint: 9.0°C (48°F) [RH = 77%]
Pressure (altimeter): 29.91 inches Hg (1013.0 mb)
Winds: from the N (350 degrees) at 20 MPH (17 knots; 8.7 m/s)
Visibility: 6 or more miles (10+ km)
Ceiling: at least 12,000 feet AGL
Clouds: few clouds at 3900 feet AGL
Weather: no significant weather observed at this time

Forecast for: ENHD (HAUGESUND/KARMOY, NO)
Text: TAF ENHD 211400Z 2115/2120 34018KT 9999 FEW020 SCT030
Forecast period: 1500 to 2000 UTC 21 June 2021
Forecast type: FROM: standard forecast or significant change
Winds: from the NNW (340 degrees) at 21 MPH (18 knots; 9.3 m/s)
Visibility: 6 or more miles (10+ km)
Ceiling: at least 12,000 feet AGL
Clouds: few clouds at 2000 feet AGL
scattered clouds at 3000 feet AGL
Weather: no significant weather forecast for this period
Text: TEMPO 2116/2120 34020G32KT
Forecast period: 1600 to 2000 UTC 21 June 2021
Forecast type: TEMPORARY: The following changes expected for less than half the time period
Winds: from the NNW (340 degrees) at 23 MPH (20 knots; 10.3 m/s)
gusting to 37 MPH (32 knots; 16.5 m/s)
Visibility: missing
Ceiling: unknown
Clouds: missing
Weather: no significant weather forecast for this period

 AIRPORT MAP

 RUNWAY INFORMATION
Runway 14 Runway length 6957 ft Runway width 148 ft
Runway elevation 61 ft Runway displaced threshold 197 ft Runway heading 134
Runway 32 Runway length 6957 ft Runway width 148 ft
Runway elevation 86 ft Runway displaced threshold 197 ft Runway heading 314

 AIRPORT FREQUENCIES
Type ATIS Name ATIS Frequency 118.175 MHZ
Type TWR Name TWR Frequency 120.5 MHZ

 AIRPORT NEAR NAVIGATION AIDS
Type VOR-DME Name Karmoy Frequency 115150 KHZ



Powered by Virtual Airlines Manager [v2.6.2]

Hosted by Utixo.it